createdAt,value
2022-11-24T00:02:46.635Z,102005.84
2022-11-24T00:07:49.491Z,102016.22
2022-11-24T00:12:52.302Z,102038.38
2022-11-24T00:17:55.000Z,102045.53
2022-11-24T00:22:57.835Z,102039.50
2022-11-24T00:28:00.595Z,102048.38
2022-11-24T00:33:03.335Z,102044.75
2022-11-24T00:38:06.115Z,102047.00
2022-11-24T00:43:08.879Z,102058.75
2022-11-24T00:48:11.657Z,102060.19
2022-11-24T00:53:14.436Z,102067.97
2022-11-24T00:58:17.170Z,102065.16
2022-11-24T01:03:21.435Z,102065.50
2022-11-24T01:08:24.125Z,102040.44
2022-11-24T01:13:26.842Z,102044.50
2022-11-24T01:18:29.650Z,102037.56
2022-11-24T01:23:32.694Z,102042.06
2022-11-24T01:28:35.946Z,102029.06
2022-11-24T01:33:39.288Z,102031.00
2022-11-24T01:38:42.124Z,102014.66
2022-11-24T01:43:45.494Z,102034.09
2022-11-24T01:49:43.920Z,102036.34
2022-11-24T01:54:52.476Z,102034.00
2022-11-24T02:00:07.634Z,102043.63
2022-11-24T02:05:29.213Z,102040.81
2022-11-24T02:10:32.140Z,102038.47
2022-11-24T02:15:35.286Z,102033.13
2022-11-24T02:20:38.492Z,102030.78
2022-11-24T02:26:01.388Z,102043.72
2022-11-24T02:31:05.368Z,102034.59
2022-11-24T02:36:08.378Z,102020.47
2022-11-24T02:41:16.981Z,102042.59
2022-11-24T02:46:19.827Z,102031.31
2022-11-24T02:51:23.400Z,102028.03
2022-11-24T02:56:26.857Z,102041.44
2022-11-24T03:01:29.601Z,102035.22
2022-11-24T03:06:32.403Z,102039.19
2022-11-24T03:11:35.137Z,102026.75
2022-11-24T03:16:38.066Z,102024.75
2022-11-24T03:21:40.760Z,102038.22
2022-11-24T03:26:43.502Z,102033.53
2022-11-24T03:31:46.491Z,102010.38
2022-11-24T03:36:49.177Z,102038.97
2022-11-24T03:41:52.128Z,102021.84
2022-11-24T03:46:54.899Z,102010.63
2022-11-24T03:51:57.734Z,101992.56
2022-11-24T03:57:00.608Z,102005.56
2022-11-24T04:02:03.420Z,101998.75
2022-11-24T04:07:06.330Z,101996.09
2022-11-24T04:12:28.249Z,101999.03
2022-11-24T04:17:30.928Z,102006.13
2022-11-24T04:22:33.663Z,102005.75
2022-11-24T04:27:37.607Z,101980.63
2022-11-24T04:32:46.654Z,101989.50
2022-11-24T04:37:49.451Z,101984.53
2022-11-24T04:42:55.966Z,101971.13
2022-11-24T04:47:58.861Z,101963.53
2022-11-24T04:53:01.594Z,101970.38
2022-11-24T04:58:04.503Z,101964.78
2022-11-24T05:03:07.320Z,101953.31
2022-11-24T05:08:09.947Z,101945.41
2022-11-24T05:13:13.830Z,101947.31
2022-11-24T05:18:16.970Z,101945.19
2022-11-24T05:23:19.889Z,101936.72
2022-11-24T05:28:22.593Z,101936.72
2022-11-24T05:33:25.344Z,101930.94
2022-11-24T05:38:28.012Z,101913.50
2022-11-24T05:43:30.795Z,101907.34
2022-11-24T05:48:33.450Z,101891.59
2022-11-24T05:53:36.222Z,101893.16
2022-11-24T05:58:39.032Z,101883.78
2022-11-24T06:03:42.169Z,101870.53
2022-11-24T06:08:44.929Z,101873.69
2022-11-24T06:13:49.066Z,101867.84
2022-11-24T06:18:53.312Z,101856.09
2022-11-24T06:23:55.961Z,101863.47
2022-11-24T06:28:58.744Z,101862.03
2022-11-24T06:34:01.727Z,101858.78
2022-11-24T06:39:05.386Z,101844.47
2022-11-24T06:44:08.528Z,101842.47
2022-11-24T06:49:11.630Z,101823.22
2022-11-24T06:54:18.853Z,101840.06
2022-11-24T06:59:21.933Z,101844.84
2022-11-24T07:04:24.605Z,101815.66
2022-11-24T07:09:27.299Z,101814.75
2022-11-24T07:14:29.922Z,101827.72
2022-11-24T07:19:32.654Z,101833.53
2022-11-24T07:24:35.471Z,101816.34
2022-11-24T07:29:38.322Z,101812.03
2022-11-24T07:34:41.004Z,101803.19
2022-11-24T07:39:43.746Z,101788.75
2022-11-24T07:44:46.467Z,101786.78
2022-11-24T07:49:49.182Z,101769.25
2022-11-24T07:54:51.810Z,101789.59
2022-11-24T07:59:54.531Z,101775.00
2022-11-24T08:04:57.274Z,101776.47
2022-11-24T08:09:59.993Z,101777.44
2022-11-24T08:15:06.514Z,101768.16
2022-11-24T08:20:12.461Z,101766.13
2022-11-24T08:25:15.694Z,101749.78
2022-11-24T08:30:18.407Z,101749.94
2022-11-24T08:35:21.515Z,101744.22
2022-11-24T08:40:24.530Z,101738.72
2022-11-24T08:45:30.668Z,101747.28
2022-11-24T08:50:35.916Z,101730.56
2022-11-24T08:55:38.856Z,101732.03
2022-11-24T09:00:41.528Z,101737.56
2022-11-24T09:05:51.651Z,101730.25
2022-11-24T09:11:00.288Z,101726.38
2022-11-24T09:16:10.825Z,101731.09
2022-11-24T09:21:16.391Z,101724.00
2022-11-24T09:26:22.198Z,101704.47
2022-11-24T09:31:27.173Z,101721.03
2022-11-24T09:36:30.003Z,101718.06
2022-11-24T09:41:40.452Z,101724.31
2022-11-24T09:47:07.071Z,101715.38
2022-11-24T09:52:13.220Z,101701.56
2022-11-24T09:57:16.553Z,101695.47
2022-11-24T10:02:19.383Z,101680.00
2022-11-24T10:07:28.415Z,101692.31
2022-11-24T10:12:49.961Z,101685.50
2022-11-24T10:18:16.193Z,101683.53
2022-11-24T10:23:49.582Z,101689.44
2022-11-24T10:28:55.547Z,101674.06
2022-11-24T10:34:02.595Z,101659.56
2022-11-24T10:39:25.199Z,101670.25
2022-11-24T10:44:27.849Z,101672.25
2022-11-24T10:49:33.949Z,101652.97
2022-11-24T10:54:37.225Z,101657.84
2022-11-24T10:59:40.928Z,101653.44
2022-11-24T11:04:43.978Z,101647.63
2022-11-24T11:09:47.836Z,101650.06
2022-11-24T11:14:51.080Z,101635.69
2022-11-24T11:20:02.010Z,101630.34
2022-11-24T11:25:11.528Z,101628.13
2022-11-24T11:35:44.146Z,101612.19
2022-11-24T11:40:50.259Z,101618.88
2022-11-24T11:46:13.757Z,101613.81
2022-11-24T11:52:01.338Z,101611.84
2022-11-24T11:57:30.398Z,101595.38
2022-11-24T12:02:53.141Z,101595.00
2022-11-24T12:08:43.931Z,101595.09
2022-11-24T12:14:12.614Z,101584.91
2022-11-24T12:19:40.034Z,101592.22
2022-11-24T12:24:45.480Z,101579.53
2022-11-24T12:30:10.379Z,101581.59
2022-11-24T12:35:23.826Z,101573.44
2022-11-24T12:40:32.607Z,101567.91
2022-11-24T12:45:43.764Z,101572.44
2022-11-24T12:50:46.890Z,101565.13
2022-11-24T12:55:49.617Z,101530.91
2022-11-24T13:01:15.981Z,101542.66
2022-11-24T13:06:25.340Z,101527.09
2022-11-24T13:11:41.092Z,101510.44
2022-11-24T13:17:21.864Z,101516.72
2022-11-24T13:22:25.525Z,101498.91
2022-11-24T13:27:32.470Z,101492.66
2022-11-24T13:32:35.128Z,101486.47
2022-11-24T13:37:37.543Z,101482.91
2022-11-24T13:42:55.517Z,101481.13
2022-11-24T13:47:58.953Z,101483.16
2022-11-24T13:53:09.023Z,101466.06
2022-11-24T13:58:14.764Z,101471.31
2022-11-24T14:04:28.701Z,101462.00
2022-11-24T14:09:25.617Z,101462.50
2022-11-24T14:14:28.372Z,101414.47
2022-11-24T14:19:32.371Z,101430.16
2022-11-24T14:24:39.715Z,101426.16
2022-11-24T14:30:01.444Z,101440.34
2022-11-24T14:35:30.150Z,101423.03
2022-11-24T14:40:45.730Z,101432.09
2022-11-24T14:45:51.955Z,101432.91
2022-11-24T14:51:05.364Z,101418.03
2022-11-24T14:56:09.430Z,101416.88
2022-11-24T15:01:28.415Z,101408.00
2022-11-24T15:06:31.187Z,101402.91
2022-11-24T15:11:34.815Z,101393.63
2022-11-24T15:16:40.550Z,101361.75
2022-11-24T15:21:43.359Z,101365.06
2022-11-24T15:26:46.527Z,101367.13
2022-11-24T15:31:52.656Z,101371.22
2022-11-24T15:36:55.934Z,101366.16
2022-11-24T15:41:58.379Z,101366.63
2022-11-24T15:47:00.926Z,101357.13
2022-11-24T15:52:03.691Z,101358.03
2022-11-24T15:57:06.097Z,101343.81
2022-11-24T16:02:09.300Z,101350.50
2022-11-24T16:07:15.222Z,101345.59
2022-11-24T16:12:18.042Z,101357.78
2022-11-24T16:17:20.679Z,101355.31
2022-11-24T16:22:23.330Z,101350.88
2022-11-24T16:27:26.029Z,101345.94
2022-11-24T16:32:28.787Z,101335.59
2022-11-24T16:37:32.462Z,101308.00
2022-11-24T16:42:35.338Z,101326.72
2022-11-24T16:47:42.053Z,101329.84
2022-11-24T16:52:44.805Z,101325.88
2022-11-24T16:57:48.792Z,101310.59
2022-11-24T17:02:51.829Z,101303.06
2022-11-24T17:07:54.666Z,101293.72
2022-11-24T17:12:57.480Z,101292.84
2022-11-24T17:18:23.461Z,101305.28
2022-11-24T17:23:22.659Z,101287.53
2022-11-24T17:28:25.104Z,101283.97
2022-11-24T17:33:28.733Z,101284.63
2022-11-24T17:38:31.574Z,101299.72
2022-11-24T17:43:34.151Z,101303.97
2022-11-24T17:48:36.961Z,101263.78
2022-11-24T17:53:41.067Z,101272.66
2022-11-24T17:58:44.157Z,101264.44
2022-11-24T18:03:50.480Z,101267.53
2022-11-24T18:08:58.992Z,101250.44
2022-11-24T18:14:03.757Z,101253.78
2022-11-24T18:19:11.233Z,101244.00
2022-11-24T18:24:17.502Z,101246.88
2022-11-24T18:29:23.732Z,101243.97
2022-11-24T18:34:26.381Z,101231.53
2022-11-24T18:39:30.138Z,101229.75
2022-11-24T18:44:33.302Z,101234.19
2022-11-24T18:49:36.271Z,101227.09
2022-11-24T18:54:39.143Z,101226.22
2022-11-24T18:59:41.570Z,101213.53
2022-11-24T19:04:44.316Z,101210.84
2022-11-24T19:09:47.194Z,101206.66
2022-11-24T19:14:49.854Z,101202.63
2022-11-24T19:19:52.809Z,101195.72
2022-11-24T19:24:55.274Z,101197.75
2022-11-24T19:29:57.891Z,101191.53
2022-11-24T19:35:00.742Z,101175.53
2022-11-24T19:40:04.393Z,101183.28
2022-11-24T19:45:07.920Z,101179.31
2022-11-24T19:50:11.631Z,101153.53
2022-11-24T19:55:14.378Z,101168.19
2022-11-24T20:00:17.927Z,101152.19
2022-11-24T20:05:20.584Z,101159.06
2022-11-24T20:10:23.572Z,101146.16
2022-11-24T20:15:26.454Z,101148.38
2022-11-24T20:20:29.136Z,101144.41
2022-11-24T20:25:31.810Z,101143.06
2022-11-24T20:30:34.525Z,101137.94
2022-11-24T20:35:37.219Z,101137.28
2022-11-24T20:40:39.865Z,101132.59
2022-11-24T20:45:42.714Z,101123.09
2022-11-24T20:50:50.962Z,101125.53
2022-11-24T20:56:06.240Z,101123.97
2022-11-24T21:01:20.563Z,101117.50
2022-11-24T21:06:23.915Z,101107.72
2022-11-24T21:11:26.883Z,101114.59
2022-11-24T21:16:32.168Z,101100.16
2022-11-24T21:21:36.107Z,101095.72
2022-11-24T21:26:39.743Z,101086.16
2022-11-24T21:31:42.469Z,101084.38
2022-11-24T21:36:45.472Z,101084.81
2022-11-24T21:41:48.496Z,101071.03
2022-11-24T21:46:55.940Z,101074.13
2022-11-24T21:51:58.972Z,101050.56
2022-11-24T21:57:01.579Z,101037.00
2022-11-24T22:02:06.723Z,101039.91
2022-11-24T22:07:13.369Z,101051.66
2022-11-24T22:12:16.459Z,101043.16
2022-11-24T22:17:19.150Z,101038.50
2022-11-24T22:22:21.946Z,101039.63
2022-11-24T22:27:24.596Z,101030.06
2022-11-24T22:32:27.347Z,101006.53
2022-11-24T22:37:29.989Z,101008.03
2022-11-24T22:42:32.647Z,101010.50
2022-11-24T22:47:35.407Z,101011.41
2022-11-24T22:52:39.130Z,100982.09
2022-11-24T22:57:44.899Z,100986.28
2022-11-24T23:02:50.765Z,100980.28
2022-11-24T23:07:53.501Z,100972.03
2022-11-24T23:12:56.299Z,100979.34
2022-11-24T23:17:58.956Z,100974.44
2022-11-24T23:23:01.580Z,100970.38
2022-11-24T23:28:04.391Z,100965.53
2022-11-24T23:33:07.076Z,100961.56
2022-11-24T23:38:09.732Z,100952.22
2022-11-24T23:43:12.469Z,100949.97
2022-11-24T23:48:15.170Z,100912.56
2022-11-24T23:53:17.841Z,100947.38
2022-11-24T23:58:20.731Z,100907.91
